createdAt,value
2023-03-29T00:00:50.957Z,596.00
2023-03-29T00:01:50.958Z,599.00
2023-03-29T00:02:51.024Z,601.00
2023-03-29T00:03:51.064Z,595.00
2023-03-29T00:04:51.730Z,596.00
2023-03-29T00:05:51.033Z,599.00
2023-03-29T00:06:50.989Z,590.00
2023-03-29T00:07:50.996Z,589.00
2023-03-29T00:08:51.014Z,590.00
2023-03-29T00:09:51.052Z,587.00
2023-03-29T00:10:51.005Z,592.00
2023-03-29T00:11:51.019Z,585.00
2023-03-29T00:12:51.016Z,587.00
2023-03-29T00:13:51.024Z,587.00
2023-03-29T00:14:51.047Z,580.00
2023-03-29T00:15:51.038Z,587.00
2023-03-29T00:16:51.169Z,586.00
2023-03-29T00:17:51.088Z,595.00
2023-03-29T00:18:51.135Z,591.00
2023-03-29T00:19:51.072Z,587.00
2023-03-29T00:20:51.078Z,586.00
2023-03-29T00:21:51.096Z,591.00
2023-03-29T00:22:51.092Z,580.00
2023-03-29T00:23:51.153Z,585.00
2023-03-29T00:24:51.113Z,581.00
2023-03-29T00:25:51.157Z,575.00
2023-03-29T00:26:51.158Z,575.00
2023-03-29T00:27:51.173Z,567.00
2023-03-29T00:28:51.166Z,565.00
2023-03-29T00:29:51.162Z,561.00
2023-03-29T00:30:51.166Z,563.00
2023-03-29T00:31:51.341Z,567.00
2023-03-29T00:32:51.393Z,563.00
2023-03-29T00:33:51.201Z,560.00
2023-03-29T00:34:51.223Z,566.00
2023-03-29T00:35:51.267Z,562.00
2023-03-29T00:36:51.240Z,560.00
2023-03-29T00:37:51.240Z,563.00
2023-03-29T00:38:51.249Z,567.00
2023-03-29T00:39:51.263Z,564.00
2023-03-29T00:40:51.287Z,564.00
2023-03-29T00:41:51.311Z,559.00
2023-03-29T00:42:51.292Z,565.00
2023-03-29T00:43:51.320Z,562.00
2023-03-29T00:44:51.315Z,556.00
2023-03-29T00:45:51.402Z,559.00
2023-03-29T00:46:51.504Z,562.00
2023-03-29T00:47:51.452Z,560.00
2023-03-29T00:48:51.371Z,560.00
2023-03-29T00:49:51.426Z,563.00
2023-03-29T00:50:51.397Z,560.00
2023-03-29T00:51:51.410Z,562.00
2023-03-29T00:52:51.418Z,567.00
2023-03-29T00:53:51.424Z,561.00
2023-03-29T00:54:51.560Z,562.00
2023-03-29T00:55:51.457Z,568.00
2023-03-29T00:56:51.539Z,562.00
2023-03-29T00:57:52.298Z,559.00
2023-03-29T00:58:51.488Z,562.00
2023-03-29T00:59:51.505Z,564.00
2023-03-29T01:00:51.498Z,562.00
2023-03-29T01:01:51.583Z,561.00
2023-03-29T01:02:51.654Z,565.00
2023-03-29T01:03:51.596Z,563.00
2023-03-29T01:04:51.556Z,562.00
2023-03-29T01:05:51.548Z,563.00
2023-03-29T01:06:51.587Z,562.00
2023-03-29T01:07:51.575Z,561.00
2023-03-29T01:08:51.589Z,565.00
2023-03-29T01:09:51.590Z,561.00
2023-03-29T01:10:51.612Z,569.00
2023-03-29T01:11:51.626Z,561.00
2023-03-29T01:12:51.628Z,566.00
2023-03-29T01:13:51.661Z,564.00
2023-03-29T01:14:51.647Z,564.00
2023-03-29T01:15:51.671Z,563.00
2023-03-29T01:16:52.418Z,559.00
2023-03-29T01:17:51.712Z,562.00
2023-03-29T01:18:51.702Z,563.00
2023-03-29T01:19:52.264Z,561.00
2023-03-29T01:20:51.718Z,560.00
2023-03-29T01:21:51.758Z,556.00
2023-03-29T01:22:52.267Z,559.00
2023-03-29T01:23:51.766Z,560.00
2023-03-29T01:24:51.780Z,556.00
2023-03-29T01:25:51.792Z,552.00
2023-03-29T01:26:51.818Z,557.00
2023-03-29T01:27:51.881Z,557.00
2023-03-29T01:28:51.823Z,560.00
2023-03-29T01:29:51.841Z,560.00
2023-03-29T01:30:51.849Z,561.00
2023-03-29T01:31:51.906Z,559.00
2023-03-29T01:32:51.931Z,552.00
2023-03-29T01:33:51.893Z,553.00
2023-03-29T01:34:51.891Z,549.00
2023-03-29T01:35:51.935Z,555.00
2023-03-29T01:36:51.918Z,557.00
2023-03-29T01:37:51.934Z,555.00
2023-03-29T01:38:51.950Z,548.00
2023-03-29T01:39:51.969Z,551.00
2023-03-29T01:40:51.975Z,552.00
2023-03-29T01:41:51.990Z,553.00
2023-03-29T01:42:52.006Z,549.00
2023-03-29T01:43:52.027Z,551.00
2023-03-29T01:44:52.029Z,553.00
2023-03-29T01:45:52.070Z,552.00
2023-03-29T01:46:52.059Z,551.00
2023-03-29T01:47:52.161Z,551.00
2023-03-29T01:48:52.103Z,549.00
2023-03-29T01:49:52.099Z,546.00
2023-03-29T01:50:52.109Z,544.00
2023-03-29T01:51:52.778Z,545.00
2023-03-29T01:52:52.145Z,551.00
2023-03-29T01:53:52.784Z,543.00
2023-03-29T01:54:52.167Z,550.00
2023-03-29T01:55:52.188Z,543.00
2023-03-29T01:56:52.346Z,538.00
2023-03-29T01:57:52.229Z,543.00
2023-03-29T01:58:52.244Z,541.00
2023-03-29T01:59:52.259Z,532.00
2023-03-29T02:00:52.288Z,536.00
2023-03-29T02:01:52.435Z,536.00
2023-03-29T02:02:52.412Z,535.00
2023-03-29T02:03:52.372Z,530.00
2023-03-29T02:04:52.357Z,523.00
2023-03-29T02:05:52.379Z,517.00
2023-03-29T02:06:53.349Z,530.00
2023-03-29T02:07:52.415Z,518.00
2023-03-29T02:08:52.458Z,527.00
2023-03-29T02:09:52.494Z,524.00
2023-03-29T02:10:52.469Z,517.00
2023-03-29T02:11:52.576Z,519.00
2023-03-29T02:12:52.527Z,516.00
2023-03-29T02:13:52.604Z,511.00
2023-03-29T02:14:52.555Z,508.00
2023-03-29T02:15:52.622Z,506.00
2023-03-29T02:16:52.602Z,512.00
2023-03-29T02:17:52.726Z,505.00
2023-03-29T02:18:52.625Z,510.00
2023-03-29T02:19:52.647Z,505.00
2023-03-29T02:20:52.650Z,503.00
2023-03-29T02:21:52.673Z,500.00
2023-03-29T02:22:52.693Z,502.00
2023-03-29T02:23:52.705Z,508.00
2023-03-29T02:24:52.719Z,511.00
2023-03-29T02:25:52.733Z,509.00
2023-03-29T02:26:53.293Z,504.00
2023-03-29T02:27:52.778Z,503.00
2023-03-29T02:28:52.794Z,501.00
2023-03-29T02:29:53.789Z,508.00
2023-03-29T02:30:52.848Z,511.00
2023-03-29T02:31:52.852Z,503.00
2023-03-29T02:32:52.871Z,506.00
2023-03-29T02:33:52.882Z,502.00
2023-03-29T02:34:52.893Z,505.00
2023-03-29T02:35:52.950Z,504.00
2023-03-29T02:36:52.944Z,506.00
2023-03-29T02:37:53.785Z,504.00
2023-03-29T02:38:52.981Z,501.00
2023-03-29T02:39:52.992Z,506.00
2023-03-29T02:40:53.005Z,505.00
2023-03-29T02:41:53.016Z,511.00
2023-03-29T02:42:53.035Z,505.00
2023-03-29T02:43:53.046Z,500.00
2023-03-29T02:44:53.061Z,503.00
2023-03-29T02:45:53.065Z,504.00
2023-03-29T02:46:53.126Z,501.00
2023-03-29T02:47:53.191Z,509.00
2023-03-29T02:48:53.135Z,504.00
2023-03-29T02:49:53.210Z,507.00
2023-03-29T02:50:53.176Z,503.00
2023-03-29T02:51:53.192Z,502.00
2023-03-29T02:52:53.209Z,502.00
2023-03-29T02:53:53.243Z,502.00
2023-03-29T02:54:53.245Z,509.00
2023-03-29T02:55:53.272Z,510.00
2023-03-29T02:56:53.353Z,512.00
2023-03-29T02:57:53.310Z,508.00
2023-03-29T02:58:53.347Z,505.00
2023-03-29T02:59:53.341Z,511.00
2023-03-29T03:00:53.370Z,511.00
2023-03-29T03:01:53.449Z,509.00
2023-03-29T03:02:53.471Z,516.00
2023-03-29T03:03:53.578Z,508.00
2023-03-29T03:04:53.457Z,507.00
2023-03-29T03:05:53.481Z,502.00
2023-03-29T03:06:53.519Z,508.00
2023-03-29T03:07:53.534Z,509.00
2023-03-29T03:08:53.564Z,502.00
2023-03-29T03:09:53.596Z,509.00
2023-03-29T03:10:53.602Z,510.00
2023-03-29T03:11:53.627Z,511.00
2023-03-29T03:12:53.659Z,502.00
2023-03-29T03:13:53.673Z,502.00
2023-03-29T03:14:54.298Z,507.00
2023-03-29T03:15:53.738Z,508.00
2023-03-29T03:16:53.733Z,506.00
2023-03-29T03:17:53.838Z,506.00
2023-03-29T03:18:53.780Z,505.00
2023-03-29T03:19:53.793Z,506.00
2023-03-29T03:20:53.802Z,505.00
2023-03-29T03:21:53.832Z,508.00
2023-03-29T03:22:53.853Z,502.00
2023-03-29T03:23:53.859Z,504.00
2023-03-29T03:24:53.869Z,507.00
2023-03-29T03:25:53.896Z,506.00
2023-03-29T03:26:53.927Z,511.00
2023-03-29T03:27:53.931Z,515.00
2023-03-29T03:28:53.963Z,511.00
2023-03-29T03:29:53.977Z,508.00
2023-03-29T03:30:53.992Z,504.00
2023-03-29T03:31:54.429Z,505.00
2023-03-29T03:32:54.042Z,507.00
2023-03-29T03:33:54.056Z,500.00
2023-03-29T03:34:54.076Z,503.00
2023-03-29T03:35:54.122Z,509.00
2023-03-29T03:36:54.105Z,511.00
2023-03-29T03:37:54.138Z,503.00
2023-03-29T03:38:54.156Z,504.00
2023-03-29T03:39:54.176Z,505.00
2023-03-29T03:40:54.217Z,503.00
2023-03-29T03:41:54.227Z,505.00
2023-03-29T03:42:54.239Z,506.00
2023-03-29T03:43:54.271Z,507.00
2023-03-29T03:44:54.291Z,504.00
2023-03-29T03:45:54.332Z,506.00
2023-03-29T03:46:54.316Z,502.00
2023-03-29T03:47:54.366Z,506.00
2023-03-29T03:48:54.361Z,502.00
2023-03-29T03:49:54.380Z,505.00
2023-03-29T03:50:54.414Z,506.00
2023-03-29T03:51:54.440Z,511.00
2023-03-29T03:52:54.479Z,508.00
2023-03-29T03:53:54.507Z,509.00
2023-03-29T03:54:54.531Z,506.00
2023-03-29T03:55:55.309Z,507.00
2023-03-29T03:56:54.631Z,514.00
2023-03-29T03:57:54.634Z,510.00
2023-03-29T03:58:54.656Z,505.00
2023-03-29T03:59:54.689Z,511.00
2023-03-29T04:00:54.713Z,503.00
2023-03-29T04:01:54.805Z,512.00
2023-03-29T04:02:54.806Z,512.00
2023-03-29T04:03:54.867Z,510.00
2023-03-29T04:04:54.815Z,505.00
2023-03-29T04:05:54.855Z,515.00
2023-03-29T04:06:54.878Z,511.00
2023-03-29T04:07:54.908Z,505.00
2023-03-29T04:08:54.950Z,503.00
2023-03-29T04:09:54.960Z,502.00
2023-03-29T04:10:55.004Z,507.00
2023-03-29T04:11:55.034Z,504.00
2023-03-29T04:12:55.067Z,510.00
2023-03-29T04:13:55.096Z,504.00
2023-03-29T04:14:55.131Z,504.00
2023-03-29T04:15:55.236Z,504.00
2023-03-29T04:16:55.196Z,501.00
2023-03-29T04:17:55.315Z,508.00
2023-03-29T04:18:55.258Z,511.00
2023-03-29T04:19:55.274Z,503.00
2023-03-29T04:20:55.314Z,504.00
2023-03-29T04:21:55.340Z,508.00
2023-03-29T04:22:55.821Z,506.00
2023-03-29T04:23:55.469Z,500.00
2023-03-29T04:24:55.416Z,506.00
2023-03-29T04:25:55.435Z,502.00
2023-03-29T04:26:55.462Z,502.00
2023-03-29T04:27:55.491Z,501.00
2023-03-29T04:28:55.524Z,501.00
2023-03-29T04:29:55.551Z,502.00
2023-03-29T04:30:55.595Z,506.00
2023-03-29T04:31:55.597Z,506.00
2023-03-29T04:32:56.442Z,505.00
2023-03-29T04:33:56.749Z,507.00
2023-03-29T04:34:55.665Z,501.00
2023-03-29T04:35:55.697Z,503.00
2023-03-29T04:36:55.709Z,503.00
2023-03-29T04:37:55.707Z,503.00
2023-03-29T04:38:56.333Z,504.00
2023-03-29T04:39:55.718Z,512.00
2023-03-29T04:40:55.723Z,509.00
2023-03-29T04:41:55.766Z,509.00
2023-03-29T04:42:55.761Z,510.00
2023-03-29T04:43:55.774Z,511.00
2023-03-29T04:44:55.809Z,509.00
2023-03-29T04:45:55.890Z,508.00
2023-03-29T04:46:55.795Z,505.00
2023-03-29T04:47:55.822Z,507.00
2023-03-29T04:48:55.821Z,509.00
2023-03-29T04:49:55.832Z,505.00
2023-03-29T04:50:55.850Z,508.00
2023-03-29T04:51:55.863Z,501.00
2023-03-29T04:52:55.878Z,501.00
2023-03-29T04:53:55.883Z,504.00
2023-03-29T04:54:55.903Z,505.00
2023-03-29T04:55:55.916Z,510.00
2023-03-29T04:56:56.026Z,511.00
2023-03-29T04:57:55.935Z,508.00
2023-03-29T04:58:55.945Z,504.00
2023-03-29T04:59:55.959Z,513.00
2023-03-29T05:00:55.973Z,505.00
2023-03-29T05:01:56.001Z,508.00
2023-03-29T05:02:56.081Z,506.00
2023-03-29T05:03:56.122Z,506.00
2023-03-29T05:04:56.014Z,506.00
2023-03-29T05:05:56.030Z,503.00
2023-03-29T05:06:56.039Z,508.00
2023-03-29T05:07:56.086Z,506.00
2023-03-29T05:08:56.077Z,512.00
2023-03-29T05:09:56.084Z,511.00
2023-03-29T05:10:56.345Z,500.00
2023-03-29T05:11:56.113Z,512.00
2023-03-29T05:12:56.155Z,510.00
2023-03-29T05:13:56.152Z,506.00
2023-03-29T05:14:56.171Z,505.00
2023-03-29T05:15:56.172Z,512.00
2023-03-29T05:16:56.183Z,503.00
2023-03-29T05:17:56.256Z,500.00
2023-03-29T05:18:56.194Z,509.00
2023-03-29T05:19:56.272Z,504.00
2023-03-29T05:20:56.229Z,510.00
2023-03-29T05:21:56.237Z,511.00
2023-03-29T05:22:56.254Z,517.00
2023-03-29T05:23:56.265Z,515.00
2023-03-29T05:24:56.268Z,528.00
2023-03-29T05:25:56.292Z,533.00
2023-03-29T05:26:56.322Z,539.00
2023-03-29T05:27:56.306Z,545.00
2023-03-29T05:28:56.319Z,567.00
2023-03-29T05:29:56.349Z,587.00
2023-03-29T05:30:56.328Z,601.00
2023-03-29T05:31:56.394Z,599.00
2023-03-29T05:32:56.362Z,604.00
2023-03-29T05:33:56.342Z,606.00
2023-03-29T05:34:56.366Z,616.00
2023-03-29T05:35:56.394Z,622.00
2023-03-29T05:36:56.361Z,632.00
2023-03-29T05:37:56.417Z,635.00
2023-03-29T05:38:56.362Z,646.00
2023-03-29T05:40:06.107Z,663.00
2023-03-29T05:40:57.361Z,664.00
2023-03-29T05:41:56.360Z,676.00
2023-03-29T05:42:56.362Z,699.00
2023-03-29T05:43:56.369Z,745.00
2023-03-29T05:44:56.376Z,797.00
2023-03-29T05:45:56.482Z,837.00
2023-03-29T05:46:56.367Z,890.00
2023-03-29T05:47:56.417Z,925.00
2023-03-29T05:48:56.357Z,960.00
2023-03-29T05:49:56.354Z,953.00
2023-03-29T05:50:56.367Z,994.00
2023-03-29T05:51:56.387Z,1030.00
2023-03-29T05:52:56.402Z,1063.00
2023-03-29T05:53:56.446Z,1092.00
2023-03-29T05:54:56.581Z,1133.00
2023-03-29T05:55:56.544Z,1138.00
2023-03-29T05:56:56.555Z,1163.00
2023-03-29T05:57:56.576Z,1191.00
2023-03-29T05:58:56.597Z,1223.00
2023-03-29T05:59:56.629Z,1248.00
2023-03-29T06:00:56.703Z,1266.00
2023-03-29T06:01:56.740Z,1307.00
2023-03-29T06:03:06.499Z,1332.00
2023-03-29T06:03:57.787Z,1333.00
2023-03-29T06:04:56.842Z,1339.00
2023-03-29T06:05:56.670Z,1358.00
2023-03-29T06:06:56.642Z,1393.00
2023-03-29T06:07:56.757Z,1451.00
2023-03-29T06:08:56.622Z,1469.00
2023-03-29T06:09:56.617Z,1503.00
2023-03-29T06:10:56.601Z,1530.00
2023-03-29T06:11:57.284Z,1541.00
2023-03-29T06:12:56.588Z,1569.00
2023-03-29T06:13:57.582Z,1570.00
2023-03-29T06:14:56.561Z,1579.00
2023-03-29T06:15:56.559Z,1597.00
2023-03-29T06:16:56.607Z,1635.00
2023-03-29T06:17:57.570Z,1573.00
2023-03-29T06:18:56.522Z,1592.00
2023-03-29T06:19:56.508Z,1625.00
2023-03-29T06:20:56.501Z,1671.00
2023-03-29T06:21:56.490Z,1761.00
2023-03-29T06:22:56.468Z,1806.00
2023-03-29T06:23:56.461Z,1515.00
2023-03-29T06:24:56.452Z,660.00
2023-03-29T06:25:56.459Z,544.00
2023-03-29T06:26:56.462Z,517.00
2023-03-29T06:27:56.465Z,519.00
2023-03-29T06:28:56.474Z,524.00
2023-03-29T06:29:56.471Z,536.00
2023-03-29T06:30:56.693Z,553.00
2023-03-29T06:31:56.478Z,569.00
2023-03-29T06:32:56.493Z,587.00
2023-03-29T06:33:56.493Z,587.00
2023-03-29T06:34:56.480Z,605.00
2023-03-29T06:35:57.416Z,616.00
2023-03-29T06:36:56.550Z,644.00
2023-03-29T06:37:56.721Z,666.00
2023-03-29T06:38:56.681Z,682.00
2023-03-29T06:39:56.734Z,705.00
2023-03-29T06:40:56.793Z,754.00
2023-03-29T06:41:56.831Z,778.00
2023-03-29T06:42:56.885Z,830.00
2023-03-29T06:43:56.883Z,868.00
2023-03-29T06:44:56.921Z,883.00
2023-03-29T06:45:56.973Z,923.00
2023-03-29T06:46:56.984Z,959.00
2023-03-29T06:47:57.001Z,984.00
2023-03-29T06:48:57.011Z,1014.00
2023-03-29T06:49:57.023Z,1040.00
2023-03-29T06:50:57.043Z,1078.00
2023-03-29T06:51:57.055Z,1106.00
2023-03-29T06:52:57.062Z,1136.00
2023-03-29T06:53:57.068Z,1142.00
2023-03-29T06:54:57.061Z,1206.00
2023-03-29T06:55:57.077Z,1221.00
2023-03-29T06:56:57.085Z,1256.00
2023-03-29T06:57:57.068Z,1268.00
2023-03-29T06:58:57.079Z,1293.00
2023-03-29T06:59:57.072Z,1328.00
2023-03-29T07:00:57.072Z,1330.00
2023-03-29T07:01:57.211Z,1373.00
2023-03-29T07:02:57.184Z,1397.00
2023-03-29T07:03:57.098Z,1428.00
2023-03-29T07:04:57.064Z,1447.00
2023-03-29T07:05:57.879Z,1479.00
2023-03-29T07:06:57.079Z,1508.00
2023-03-29T07:07:57.201Z,1513.00
2023-03-29T07:08:57.882Z,1517.00
2023-03-29T07:09:57.152Z,1547.00
2023-03-29T07:10:57.154Z,1575.00
2023-03-29T07:11:57.192Z,1603.00
2023-03-29T07:12:57.232Z,1638.00
2023-03-29T07:13:57.268Z,1683.00
2023-03-29T07:14:57.295Z,1694.00
2023-03-29T07:15:57.314Z,1721.00
2023-03-29T07:16:57.510Z,1740.00
2023-03-29T07:17:57.437Z,1726.00
2023-03-29T07:18:57.348Z,1738.00
2023-03-29T07:19:57.343Z,1770.00
2023-03-29T07:20:57.408Z,1761.00
2023-03-29T07:21:57.349Z,1769.00
2023-03-29T07:22:57.349Z,1788.00
2023-03-29T07:23:57.365Z,1780.00
2023-03-29T07:24:57.372Z,1771.00
2023-03-29T07:25:57.388Z,1760.00
2023-03-29T07:27:04.077Z,1753.00
2023-03-29T07:27:58.446Z,1754.00
2023-03-29T07:28:57.400Z,1755.00
2023-03-29T07:29:57.462Z,1744.00
2023-03-29T07:30:57.401Z,1735.00
2023-03-29T07:31:57.397Z,1748.00
2023-03-29T07:32:57.503Z,1732.00
2023-03-29T07:33:57.495Z,1719.00
2023-03-29T07:34:57.465Z,1717.00
2023-03-29T07:35:57.443Z,1706.00
2023-03-29T07:36:57.894Z,1700.00
2023-03-29T07:37:57.374Z,1685.00
2023-03-29T07:38:57.376Z,1693.00
2023-03-29T07:39:57.375Z,1696.00
2023-03-29T07:40:57.375Z,1684.00
2023-03-29T07:41:57.380Z,1669.00
2023-03-29T07:42:57.442Z,1676.00
2023-03-29T07:43:57.461Z,1648.00
2023-03-29T07:44:57.514Z,1639.00
2023-03-29T07:45:57.598Z,1631.00
2023-03-29T07:46:57.627Z,1636.00
2023-03-29T07:47:57.825Z,1635.00
2023-03-29T07:48:57.744Z,1620.00
2023-03-29T07:49:57.792Z,1615.00
2023-03-29T07:50:57.858Z,1594.00
2023-03-29T07:51:57.923Z,1591.00
2023-03-29T07:52:57.976Z,1590.00
2023-03-29T07:53:58.053Z,1591.00
2023-03-29T07:54:58.114Z,1574.00
2023-03-29T07:55:58.197Z,1578.00
2023-03-29T07:56:58.392Z,1575.00
2023-03-29T07:57:58.309Z,1559.00
2023-03-29T07:58:58.454Z,1546.00
2023-03-29T07:59:58.452Z,1541.00
2023-03-29T08:00:58.561Z,1524.00
2023-03-29T08:01:58.585Z,1507.00
2023-03-29T08:02:58.693Z,1500.00
2023-03-29T08:03:58.853Z,1483.00
2023-03-29T08:04:58.899Z,1469.00
2023-03-29T08:05:58.872Z,1471.00
2023-03-29T08:06:58.952Z,1456.00
2023-03-29T08:07:59.024Z,1472.00
2023-03-29T08:08:59.081Z,1448.00
2023-03-29T08:09:59.146Z,1440.00
2023-03-29T08:10:59.228Z,1454.00
2023-03-29T08:11:59.273Z,1430.00
2023-03-29T08:12:59.350Z,1440.00
2023-03-29T08:13:59.430Z,1441.00
2023-03-29T08:14:59.492Z,1419.00
2023-03-29T08:15:59.575Z,1424.00
2023-03-29T08:16:59.651Z,1440.00
2023-03-29T08:17:59.938Z,1433.00
2023-03-29T08:18:59.777Z,1434.00
2023-03-29T08:19:59.840Z,1420.00
2023-03-29T08:21:00.011Z,1433.00
2023-03-29T08:21:59.995Z,1403.00
2023-03-29T08:23:00.040Z,1417.00
2023-03-29T08:24:00.132Z,1389.00
2023-03-29T08:25:00.172Z,1393.00
2023-03-29T08:26:00.182Z,1373.00
2023-03-29T08:27:00.218Z,1368.00
2023-03-29T08:28:00.284Z,1366.00
2023-03-29T08:29:00.341Z,1368.00
2023-03-29T08:30:00.394Z,1351.00
2023-03-29T08:31:00.680Z,1343.00
2023-03-29T08:32:00.520Z,1330.00
2023-03-29T08:33:00.594Z,1343.00
2023-03-29T08:34:00.584Z,1331.00
2023-03-29T08:35:00.598Z,1336.00
2023-03-29T08:36:00.649Z,1323.00
2023-03-29T08:37:00.711Z,1312.00
2023-03-29T08:38:00.639Z,1327.00
2023-03-29T08:39:00.647Z,1311.00
2023-03-29T08:40:00.700Z,1302.00
2023-03-29T08:41:00.913Z,1312.00
2023-03-29T08:42:00.753Z,1291.00
2023-03-29T08:43:00.742Z,1291.00
2023-03-29T08:44:00.753Z,1300.00
2023-03-29T08:45:01.833Z,1281.00
2023-03-29T08:46:00.855Z,1279.00
2023-03-29T08:47:00.839Z,1274.00
2023-03-29T08:48:00.855Z,1264.00
2023-03-29T08:49:00.826Z,1265.00
2023-03-29T08:50:00.846Z,1259.00
2023-03-29T08:51:01.032Z,1237.00
2023-03-29T08:52:01.835Z,1229.00
2023-03-29T08:53:00.898Z,1241.00
2023-03-29T08:54:00.905Z,1220.00
2023-03-29T08:55:00.935Z,1218.00
2023-03-29T08:56:00.944Z,1222.00
2023-03-29T08:57:00.989Z,1202.00
2023-03-29T08:58:00.997Z,1187.00
2023-03-29T08:59:00.962Z,1200.00
2023-03-29T09:00:01.209Z,1202.00
2023-03-29T09:01:01.360Z,1205.00
2023-03-29T09:02:01.066Z,1202.00
2023-03-29T09:03:01.092Z,1195.00
2023-03-29T09:04:01.064Z,1176.00
2023-03-29T09:05:01.921Z,1165.00
2023-03-29T09:06:00.988Z,1173.00
2023-03-29T09:07:00.993Z,1162.00
2023-03-29T09:08:01.000Z,1151.00
2023-03-29T09:09:00.991Z,1152.00
2023-03-29T09:10:00.986Z,1159.00
2023-03-29T09:11:01.149Z,1148.00
2023-03-29T09:12:01.002Z,1131.00
2023-03-29T09:13:01.032Z,1132.00
2023-03-29T09:14:01.046Z,1123.00
2023-03-29T09:15:01.206Z,1125.00
2023-03-29T09:16:01.050Z,1105.00
2023-03-29T09:17:01.015Z,1096.00
2023-03-29T09:18:01.469Z,1113.00
2023-03-29T09:19:01.029Z,1100.00
2023-03-29T09:20:01.037Z,1105.00
2023-03-29T09:21:01.343Z,1104.00
2023-03-29T09:22:01.046Z,1099.00
2023-03-29T09:23:01.055Z,1111.00
2023-03-29T09:24:01.063Z,1099.00
2023-03-29T09:25:01.098Z,1094.00
2023-03-29T09:26:01.100Z,1093.00
2023-03-29T09:27:01.101Z,1087.00
2023-03-29T09:28:01.125Z,1078.00
2023-03-29T09:29:01.128Z,1084.00
2023-03-29T09:30:01.175Z,1074.00
2023-03-29T09:31:01.265Z,1087.00
2023-03-29T09:32:01.190Z,1074.00
2023-03-29T09:33:01.179Z,1081.00
2023-03-29T09:34:01.135Z,1061.00
2023-03-29T09:35:01.209Z,1070.00
2023-03-29T09:36:01.905Z,1076.00
2023-03-29T09:37:01.167Z,1089.00
2023-03-29T09:38:01.196Z,1077.00
2023-03-29T09:39:01.198Z,1072.00
2023-03-29T09:40:02.070Z,1063.00
2023-03-29T09:41:01.653Z,1078.00
2023-03-29T09:42:01.401Z,1065.00
2023-03-29T09:43:01.442Z,1057.00
2023-03-29T09:44:01.478Z,1070.00
2023-03-29T09:45:01.432Z,1062.00
2023-03-29T09:46:01.531Z,1062.00
2023-03-29T09:47:01.445Z,1051.00
2023-03-29T09:48:01.493Z,1040.00
2023-03-29T09:49:01.514Z,1048.00
2023-03-29T09:50:01.539Z,1034.00
2023-03-29T09:51:01.615Z,1035.00
2023-03-29T09:52:01.527Z,1038.00
2023-03-29T09:53:01.550Z,1035.00
2023-03-29T09:54:01.529Z,1037.00
2023-03-29T09:55:01.524Z,1040.00
2023-03-29T09:56:01.554Z,1043.00
2023-03-29T09:57:01.634Z,1028.00
2023-03-29T09:58:01.583Z,1001.00
2023-03-29T09:59:01.569Z,1025.00
2023-03-29T10:00:02.443Z,1030.00
2023-03-29T10:01:01.802Z,1024.00
2023-03-29T10:02:01.594Z,1007.00
2023-03-29T10:03:01.637Z,999.00
2023-03-29T10:04:01.641Z,1015.00
2023-03-29T10:05:01.717Z,997.00
2023-03-29T10:06:01.659Z,1012.00
2023-03-29T10:07:01.648Z,1014.00
2023-03-29T10:08:01.651Z,1013.00
2023-03-29T10:09:01.660Z,999.00
2023-03-29T10:10:01.667Z,1008.00
2023-03-29T10:11:01.900Z,1008.00
2023-03-29T10:12:01.690Z,997.00
2023-03-29T10:13:01.699Z,987.00
2023-03-29T10:14:01.701Z,1004.00
2023-03-29T10:15:01.778Z,1005.00
2023-03-29T10:16:01.795Z,998.00
2023-03-29T10:17:01.816Z,979.00
2023-03-29T10:18:01.810Z,963.00
2023-03-29T10:19:01.769Z,987.00
2023-03-29T10:20:03.970Z,984.00
2023-03-29T10:21:02.210Z,965.00
2023-03-29T10:22:02.000Z,968.00
2023-03-29T10:23:02.023Z,958.00
2023-03-29T10:24:02.070Z,964.00
2023-03-29T10:25:02.053Z,962.00
2023-03-29T10:26:03.006Z,959.00
2023-03-29T10:27:02.088Z,958.00
2023-03-29T10:28:02.092Z,960.00
2023-03-29T10:29:02.110Z,953.00
2023-03-29T10:30:02.119Z,963.00
2023-03-29T10:31:02.406Z,939.00
2023-03-29T10:32:02.241Z,936.00
2023-03-29T10:33:02.190Z,920.00
2023-03-29T10:34:02.162Z,915.00
2023-03-29T10:35:02.177Z,914.00
2023-03-29T10:36:02.201Z,918.00
2023-03-29T10:37:02.203Z,913.00
2023-03-29T10:38:02.200Z,914.00
2023-03-29T10:39:04.302Z,917.00
2023-03-29T10:40:02.220Z,931.00
2023-03-29T10:41:02.372Z,913.00
2023-03-29T10:42:02.297Z,904.00
2023-03-29T10:43:02.202Z,909.00
2023-03-29T10:44:02.209Z,904.00
2023-03-29T10:45:02.209Z,891.00
2023-03-29T10:46:02.226Z,891.00
2023-03-29T10:47:02.217Z,887.00
2023-03-29T10:48:02.288Z,885.00
2023-03-29T10:49:02.218Z,883.00
2023-03-29T10:50:02.226Z,868.00
2023-03-29T10:51:02.432Z,866.00
2023-03-29T10:52:02.226Z,867.00
2023-03-29T10:53:02.219Z,873.00
2023-03-29T10:54:02.222Z,869.00
2023-03-29T10:55:02.226Z,870.00
2023-03-29T10:56:02.226Z,867.00
2023-03-29T10:57:02.252Z,871.00
2023-03-29T10:58:02.237Z,852.00
2023-03-29T10:59:02.232Z,836.00
2023-03-29T11:00:02.233Z,827.00
2023-03-29T11:01:02.419Z,845.00
2023-03-29T11:02:02.404Z,833.00
2023-03-29T11:03:02.345Z,850.00
2023-03-29T11:04:02.434Z,842.00
2023-03-29T11:05:02.273Z,828.00
2023-03-29T11:06:02.259Z,850.00
2023-03-29T11:07:02.283Z,836.00
2023-03-29T11:08:02.268Z,823.00
2023-03-29T11:09:02.344Z,811.00
2023-03-29T11:10:02.341Z,812.00
2023-03-29T11:11:02.562Z,811.00
2023-03-29T11:12:15.151Z,802.00
2023-03-29T11:13:03.307Z,804.00
2023-03-29T11:14:02.308Z,804.00
2023-03-29T11:15:02.313Z,804.00
2023-03-29T11:16:02.328Z,800.00
2023-03-29T11:17:02.317Z,800.00
2023-03-29T11:18:02.339Z,798.00
2023-03-29T11:19:02.324Z,788.00
2023-03-29T11:20:04.919Z,792.00
2023-03-29T11:21:02.395Z,794.00
2023-03-29T11:22:02.335Z,807.00
2023-03-29T11:23:02.325Z,768.00
2023-03-29T11:24:02.319Z,773.00
2023-03-29T11:25:02.337Z,751.00
2023-03-29T11:26:02.329Z,761.00
2023-03-29T11:27:02.338Z,757.00
2023-03-29T11:28:02.341Z,758.00
2023-03-29T11:29:02.357Z,754.00
2023-03-29T11:30:02.423Z,747.00
2023-03-29T11:31:02.736Z,742.00
2023-03-29T11:32:02.398Z,750.00
2023-03-29T11:33:02.379Z,737.00
2023-03-29T11:34:02.366Z,751.00
2023-03-29T11:35:02.395Z,748.00
2023-03-29T11:36:02.458Z,735.00
2023-03-29T11:37:02.384Z,728.00
2023-03-29T11:38:02.378Z,733.00
2023-03-29T11:39:02.384Z,732.00
2023-03-29T11:40:02.387Z,737.00
2023-03-29T11:41:02.768Z,725.00
2023-03-29T11:42:02.416Z,735.00
2023-03-29T11:43:02.422Z,737.00
2023-03-29T11:44:02.409Z,745.00
2023-03-29T11:45:02.420Z,732.00
2023-03-29T11:46:02.427Z,739.00
2023-03-29T11:47:02.453Z,738.00
2023-03-29T11:48:02.480Z,734.00
2023-03-29T11:49:02.418Z,730.00
2023-03-29T11:50:02.507Z,723.00
2023-03-29T11:51:02.525Z,722.00
2023-03-29T11:52:02.428Z,728.00
2023-03-29T11:53:02.421Z,717.00
2023-03-29T11:54:02.424Z,717.00
2023-03-29T11:55:02.429Z,713.00
2023-03-29T11:56:02.436Z,716.00
2023-03-29T11:57:02.467Z,700.00
2023-03-29T11:58:02.438Z,689.00
2023-03-29T11:59:02.450Z,687.00
2023-03-29T12:00:02.454Z,693.00
2023-03-29T12:01:02.723Z,681.00
2023-03-29T12:02:02.477Z,682.00
2023-03-29T12:03:02.524Z,667.00
2023-03-29T12:04:02.586Z,665.00
2023-03-29T12:05:02.477Z,660.00
2023-03-29T12:06:02.514Z,659.00
2023-03-29T12:07:02.484Z,653.00
2023-03-29T12:08:02.498Z,652.00
2023-03-29T12:09:02.503Z,649.00
2023-03-29T12:10:02.516Z,653.00
2023-03-29T12:11:02.710Z,648.00
2023-03-29T12:12:02.537Z,649.00
2023-03-29T12:13:02.552Z,639.00
2023-03-29T12:14:02.549Z,638.00
2023-03-29T12:15:02.574Z,632.00
2023-03-29T12:16:02.643Z,627.00
2023-03-29T12:17:02.671Z,624.00
2023-03-29T12:18:02.626Z,624.00
2023-03-29T12:19:02.578Z,623.00
2023-03-29T12:20:02.590Z,625.00
2023-03-29T12:21:02.590Z,619.00
2023-03-29T12:22:02.588Z,616.00